Harle — ZCTV4 — position and weather

sailwx.info

Track history (hours):
 
Tides and Currents Weather Stations Pressure Air Temp Water Temp Dewpoint Dewpoint Depression Visibility Wind Speed Wind Dir Waves Ship Positions

Harle

Last reported at 2018-Jan-18 11:39 UTC. Time now 2018-Jan-21 22:32 UTC.
Position N 17°11' W 062°42'.

Length 45 m; draft 2.7 m.

Type: Pleasure craft. MMSI: 319323000.

Date/timePositionNaut miles runAvg speedWind from/ knotsBaromVisibWave heightAir tempDewpointWater temp
2018-Jan-18 11:39N 17°11' W 062°42'310.2
2018-Jan-18 11:24N 17°09' W 062°41'512.0
2018-Jan-18 11:00N 17°04' W 062°39'2112.5
2018-Jan-18 09:17N 16°47' W 062°26'412.7
2018-Jan-18 09:00N 16°44' W 062°24'612.5
2018-Jan-18 08:30N 16°39' W 062°20'612.1
2018-Jan-18 08:01N 16°35' W 062°16'612.1
2018-Jan-18 07:30N 16°30' W 062°11'612.0
2018-Jan-18 07:00N 16°26' W 062°07'612.0
2018-Jan-18 06:30N 16°21' W 062°03'711.9
2018-Jan-18 05:56N 16°16' W 061°59'511.8
2018-Jan-18 05:31N 16°12' W 061°56'811.9
2018-Jan-18 04:51N 16°06' W 061°51'511.9
2018-Jan-18 04:26N 16°01' W 061°49'611.9
2018-Jan-18 03:55N 15°55' W 061°46'812.0
2018-Jan-18 03:13N 15°48' W 061°43'312.1
2018-Jan-18 03:01N 15°45' W 061°42'912.1
2018-Jan-18 02:18N 15°37' W 061°39'  
Track history (hours):
 
Tides and Currents Weather Stations Pressure Air Temp Water Temp Dewpoint Dewpoint Depression Visibility Wind Speed Wind Dir Waves Ship Positions

Harle

Last reported at 2018-Jan-18 11:39 UTC. Time now 2018-Jan-21 22:32 UTC.
Position N 17°11' W 062°42'.

Length 45 m; draft 2.7 m.

Type: Pleasure craft. MMSI: 319323000.

Date/timePositionNaut miles runAvg speedWind from/ knotsBaromVisibWave heightAir tempDewpointWater temp
2018-Jan-18 11:39N 17°11' W 062°42'310.2
2018-Jan-18 11:24N 17°09' W 062°41'512.0
2018-Jan-18 11:00N 17°04' W 062°39'2112.5
2018-Jan-18 09:17N 16°47' W 062°26'412.7
2018-Jan-18 09:00N 16°44' W 062°24'612.5
2018-Jan-18 08:30N 16°39' W 062°20'612.1
2018-Jan-18 08:01N 16°35' W 062°16'612.1
2018-Jan-18 07:30N 16°30' W 062°11'612.0
2018-Jan-18 07:00N 16°26' W 062°07'612.0
2018-Jan-18 06:30N 16°21' W 062°03'711.9
2018-Jan-18 05:56N 16°16' W 061°59'511.8
2018-Jan-18 05:31N 16°12' W 061°56'811.9
2018-Jan-18 04:51N 16°06' W 061°51'511.9
2018-Jan-18 04:26N 16°01' W 061°49'611.9
2018-Jan-18 03:55N 15°55' W 061°46'812.0
2018-Jan-18 03:13N 15°48' W 061°43'312.1
2018-Jan-18 03:01N 15°45' W 061°42'912.1
2018-Jan-18 02:18N 15°37' W 061°39'  

Dump ship's entire track history